Latest Weather Observations for Kuitpo

IDS60801

Issued at 4:35 pm CST Thursday 31 July 2014 (issued every 30 minutes, with the page automatically refreshed every 10 minutes)

About weather observations | Map of weather stations | Latest weather observations for SA | Other Formats
Station Details ID: 023887 Name: KUITPO FOREST RESERVE Lat: -35.17 Lon: 138.68 Height: 365.0 m
Data from the previous 72 hours. | See also: Recent months at Kuitpo
Date/Time
CST
Temp
°C
App
Temp
°C
Dew
Point
Rel
Hum
%
Delta-T
°C
Wind Press
QNH
hPa
Press
MSL
hPa
Rain
since 9 am
mm
Dir
 
Spd
km/h
Gust
km/h
Spd
kts
Gust
kts
31/04:30pm 7.0 2.1 7.0 100 0.0 W 22 37 12 20 1003.9 1004.1 17.0
31/04:04pm 7.0 1.0 7.0 100 0.0 WSW 28 46 15 25 1003.5 - 16.6
31/04:00pm 7.2 2.0 7.2 100 0.0 WSW 24 37 13 20 1003.5 - 16.2
31/03:30pm 7.7 1.1 7.7 100 0.0 W 32 54 17 29 1002.9 1003.1 15.2
31/03:00pm 8.2 1.1 8.2 100 0.0 W 35 65 19 35 1002.5 1002.7 13.6
31/02:30pm 7.7 0.9 7.7 100 0.0 W 33 54 18 29 1002.4 1002.6 12.2
31/02:03pm 8.4 2.3 8.4 100 0.0 W 30 50 16 27 1002.2 - 10.6
31/02:00pm 8.5 2.5 8.5 100 0.0 W 30 44 16 24 1002.2 - 10.4
31/01:30pm 8.1 1.6 8.1 100 0.0 WSW 32 46 17 25 1002.0 1002.2 10.0
31/01:00pm 8.1 1.6 8.1 100 0.0 W 32 59 17 32 1001.6 - 8.0
31/12:30pm 8.2 0.8 8.2 100 0.0 WSW 37 63 20 34 1002.0 1002.2 5.8
31/12:02pm 9.0 1.4 9.0 100 0.0 WSW 39 59 21 32 1001.9 - 4.0
31/12:00pm 9.7 3.0 9.7 100 0.0 W 35 44 19 24 1001.8 1001.9 3.8
31/11:30am 11.7 3.8 9.3 85 1.2 NNW 41 63 22 34 1001.1 1001.3 0.0
31/11:00am 11.7 3.4 9.3 85 1.2 NNW 43 72 23 39 1001.4 - 0.0
31/10:30am 12.2 4.7 9.6 84 1.4 NW 39 69 21 37 1002.2 1002.4 0.0
31/10:00am 12.6 5.9 9.6 82 1.6 NW 35 63 19 34 1002.1 - 0.0
31/09:30am 11.9 4.8 9.5 85 1.2 NW 37 63 20 34 1002.8 1003.0 0.0
31/09:00am 11.3 3.8 9.4 88 1.0 NW 39 65 21 35 1003.0 1003.2 0.0
31/08:30am 10.8 2.9 9.2 90 0.8 NW 41 72 22 39 1003.3 1003.5 0.0
31/08:00am 10.6 3.8 9.2 91 0.7 NW 35 65 19 35 1003.2 - 0.0
31/07:30am 10.3 2.7 9.1 92 0.6 NW 39 63 21 34 1003.1 1003.3 0.0
31/07:00am 10.0 3.0 8.6 91 0.7 NW 35 56 19 30 1003.3 - 0.0
31/06:30am 10.3 3.6 8.2 87 1.0 NW 33 54 18 29 1003.7 1003.9 0.0
31/06:00am 10.2 3.1 8.0 86 1.1 NW 35 59 19 32 1003.8 1004.0 0.0
31/05:30am 9.6 3.3 7.5 87 1.0 NW 30 54 16 29 1004.1 1004.3 0.0
31/05:00am 10.1 3.3 7.5 84 1.3 NW 33 56 18 30 1004.5 - 0.0
31/04:30am 10.6 4.0 7.8 83 1.4 NW 32 54 17 29 1004.8 1005.0 0.0
31/04:00am 11.0 4.2 7.9 81 1.5 NW 33 59 18 32 1005.2 - 0.0
31/03:30am 11.0 5.2 7.9 81 1.5 NW 28 48 15 26 1005.9 1006.1 0.0
31/03:00am 11.1 4.5 7.6 79 1.7 NW 32 52 17 28 1006.2 1006.4 0.0
31/02:30am 11.1 4.9 8.0 81 1.5 NW 30 52 16 28 1006.9 1007.2 0.0
31/02:00am 11.2 5.0 7.9 80 1.6 NW 30 50 16 27 1007.6 - 0.0
31/01:34am 11.3 5.6 8.2 81 1.5 NW 28 48 15 26 1007.8 - 0.0
31/01:30am 11.1 5.3 8.1 82 1.5 NW 28 44 15 24 1008.0 1008.2 0.0
31/01:00am 11.4 5.7 8.3 81 1.6 NW 28 48 15 26 1008.3 - 0.0
31/12:35am 11.6 5.9 8.5 81 1.6 NW 28 46 15 25 1008.6 - 0.0
31/12:30am 11.5 5.8 8.5 82 1.5 NW 28 43 15 23 1008.7 1008.9 0.0
31/12:00am 11.9 5.0 8.7 81 1.6 WNW 35 56 19 30 1009.0 1009.3 0.0
 
Date/Time
CST
Temp
°C
App
Temp
°C
Dew
Point
Rel
Hum
%
Delta-T
°C
Wind Press
QNH
hPa
Press
MSL
hPa
Rain
since 9 am
mm
Dir
 
Spd
km/h
Gust
km/h
Spd
kts
Gust
kts
30/11:33pm 12.0 5.1 9.0 82 1.5 WNW 35 54 19 29 1009.3 - 0.0
30/11:30pm 12.1 4.9 9.1 82 1.5 WNW 37 54 20 29 1009.3 1009.6 0.0
30/11:00pm 12.2 5.0 9.2 82 1.5 WNW 37 57 20 31 1009.5 - 0.0
30/10:30pm 12.6 5.5 9.6 82 1.6 WNW 37 57 20 31 1009.8 1010.1 0.0
30/10:00pm 12.4 5.8 10.1 86 1.2 WNW 35 54 19 29 1010.3 - 0.0
30/09:30pm 12.4 6.2 10.1 86 1.2 WNW 33 57 18 31 1010.8 1011.0 0.0
30/09:00pm 12.7 6.6 10.4 86 1.2 WNW 33 54 18 29 1011.2 1011.5 0.0
30/08:30pm 12.6 7.6 11.0 90 0.9 WNW 28 48 15 26 1011.5 1011.8 0.0
30/08:00pm 12.2 7.2 11.1 93 0.6 NW 28 46 15 25 1011.8 - 0.0
30/07:33pm 11.9 7.1 11.6 98 0.2 NW 28 46 15 25 1012.0 - 0.0
30/07:30pm 12.0 6.8 11.7 98 0.2 NW 30 46 16 25 1012.1 1012.4 0.0
30/07:00pm 11.9 7.6 11.9 100 0.0 NW 26 44 14 24 1012.2 - 0.0
30/06:30pm 11.9 6.8 11.9 100 0.0 NW 30 56 16 30 1012.0 1012.3 0.0
30/06:01pm 11.8 7.0 11.8 100 0.0 NW 28 48 15 26 1012.0 - 0.0
30/06:00pm 11.8 7.4 11.8 100 0.0 NW 26 48 14 26 1012.0 1012.3 0.0
30/05:30pm 12.0 7.3 12.0 100 0.0 NW 28 46 15 25 1012.0 1012.3 0.0
30/05:00pm 12.2 7.2 12.2 100 0.0 NW 30 50 16 27 1011.9 - 0.0
30/04:30pm 12.2 7.2 12.2 100 0.0 NW 30 50 16 27 1012.0 1012.3 0.0
30/04:00pm 12.2 7.2 12.2 100 0.0 NW 30 57 16 31 1012.2 - 0.0
30/03:30pm 12.5 7.6 12.5 100 0.0 WNW 30 50 16 27 1012.5 1012.8 0.0
30/03:21pm 12.5 8.0 12.5 100 0.0 WNW 28 46 15 25 1012.5 - 0.0
30/03:00pm 12.4 7.1 12.4 100 0.0 WNW 32 44 17 24 1012.6 1012.9 0.0
30/02:30pm 12.6 7.3 12.6 100 0.0 WNW 32 54 17 29 1012.9 1013.2 0.0
30/02:00pm 12.4 7.8 12.4 100 0.0 WNW 28 50 15 27 1013.2 - 0.0
30/01:31pm 12.7 7.8 12.7 100 0.0 WNW 30 48 16 26 1013.5 - 0.0
30/01:30pm 12.7 7.5 12.7 100 0.0 WNW 32 48 17 26 1013.5 1013.8 0.0
30/01:00pm 12.2 7.2 12.2 100 0.0 WNW 30 52 16 28 1014.1 - 0.0
30/12:30pm 11.9 6.2 11.9 100 0.0 WNW 33 54 18 29 1014.4 1014.7 0.0
30/12:00pm 12.1 6.7 12.1 100 0.0 WNW 32 54 17 29 1014.9 1015.2 0.0
30/11:32am 12.3 7.7 12.3 100 0.0 WNW 28 46 15 25 1015.3 - 0.0
30/11:30am 12.3 7.7 12.3 100 0.0 WNW 28 43 15 23 1015.4 1015.7 0.0
30/11:03am 12.2 7.6 12.2 100 0.0 NW 28 46 15 25 1015.6 - 0.0
30/11:00am 11.9 6.4 11.9 100 0.0 NW 32 46 17 25 1015.6 - 0.0
30/10:30am 11.5 5.9 11.5 100 0.0 WNW 32 50 17 27 1015.9 1016.3 0.0
30/10:01am 11.3 6.4 11.3 100 0.0 WNW 28 46 15 25 1015.8 - 0.0
30/10:00am 11.3 6.0 11.3 100 0.0 WNW 30 46 16 25 1015.8 - 0.0
30/09:30am 11.3 6.0 11.3 100 0.0 WNW 30 54 16 29 1016.0 1016.4 0.0
30/09:00am 11.1 5.2 11.1 100 0.0 WNW 33 52 18 28 1015.8 1016.2 2.4
30/08:30am 11.0 6.0 11.0 100 0.0 WNW 28 46 15 25 1015.6 1015.9 2.4
30/08:00am 11.0 5.6 11.0 100 0.0 WNW 30 52 16 28 1015.7 - 2.4
30/07:30am 10.9 5.1 10.9 100 0.0 WNW 32 50 17 27 1015.8 1016.2 2.4
30/07:00am 10.7 5.6 10.7 100 0.0 NW 28 50 15 27 1015.6 - 2.4
30/06:41am 10.7 5.6 10.7 100 0.0 WNW 28 46 15 25 1015.4 - 2.4
30/06:30am 10.7 6.0 10.7 100 0.0 WNW 26 39 14 21 1015.4 1015.7 2.4
30/06:11am 10.8 5.8 10.8 100 0.0 NW 28 46 15 25 1015.2 - 2.4
30/06:00am 10.8 6.9 10.8 100 0.0 WNW 22 37 12 20 1015.3 1015.6 2.4
30/05:30am 10.8 6.1 10.8 100 0.0 NW 26 44 14 24 1015.0 1015.3 2.4
30/05:00am 10.9 7.4 10.9 100 0.0 WNW 20 30 11 16 1015.1 - 2.4
30/04:30am 10.9 7.0 10.9 100 0.0 WNW 22 33 12 18 1015.0 1015.3 2.4
30/04:00am 11.0 7.2 11.0 100 0.0 WNW 22 35 12 19 1015.2 - 2.4
30/03:30am 11.1 5.8 11.1 100 0.0 WNW 30 48 16 26 1015.4 1015.7 2.4
30/03:01am 11.1 6.1 11.1 100 0.0 WNW 28 46 15 25 1015.6 - 2.4
30/03:00am 11.1 5.8 11.1 100 0.0 WNW 30 46 16 25 1015.5 1015.8 2.4
30/02:51am 11.1 6.1 11.1 100 0.0 NW 28 46 15 25 1015.5 - 2.4
30/02:30am 11.2 6.3 11.2 100 0.0 WNW 28 44 15 24 1015.7 1016.1 2.4
30/02:00am 11.3 7.2 11.3 100 0.0 NW 24 43 13 23 1015.9 - 2.4
30/01:30am 11.3 6.8 11.3 100 0.0 NW 26 44 14 24 1016.2 1016.5 2.4
30/01:05am 11.1 6.1 11.1 100 0.0 WNW 28 46 15 25 1016.0 - 2.4
30/01:00am 11.2 7.0 11.2 100 0.0 WNW 24 43 13 23 1016.2 - 2.4
30/12:30am 11.4 6.5 11.4 100 0.0 WNW 28 48 15 26 1016.3 1016.6 2.4
30/12:25am 11.4 6.5 11.4 100 0.0 NW 28 48 15 26 1016.0 - 2.4
30/12:00am 11.5 5.9 11.5 100 0.0 WNW 32 44 17 24 1016.2 1016.5 2.4
 
Date/Time
CST
Temp
°C
App
Temp
°C
Dew
Point
Rel
Hum
%
Delta-T
°C
Wind Press
QNH
hPa
Press
MSL
hPa
Rain
since 9 am
mm
Dir
 
Spd
km/h
Gust
km/h
Spd
kts
Gust
kts
29/11:30pm 11.5 6.7 11.5 100 0.0 NW 28 43 15 23 1016.2 1016.5 2.4
29/11:07pm 11.5 6.7 11.5 100 0.0 WNW 28 46 15 25 1016.3 - 2.4
29/11:00pm 11.5 6.7 11.5 100 0.0 WNW 28 44 15 24 1016.4 - 2.4
29/10:30pm 11.5 5.9 11.5 100 0.0 NW 32 50 17 27 1016.2 1016.5 2.4
29/10:07pm 11.6 6.4 11.6 100 0.0 WNW 30 48 16 26 1016.0 - 2.4
29/10:00pm 11.6 5.8 11.6 100 0.0 WNW 33 48 18 26 1016.0 - 2.4
29/09:30pm 11.5 6.3 11.5 100 0.0 WNW 30 48 16 26 1015.9 1016.3 2.4
29/09:00pm 11.6 6.4 11.6 100 0.0 WNW 30 50 16 27 1016.0 1016.4 2.4
29/08:41pm 11.6 6.4 11.6 100 0.0 WNW 30 52 16 28 1015.8 - 2.4
29/08:30pm 11.6 6.4 11.6 100 0.0 WNW 30 44 16 24 1015.7 1016.1 2.4
29/08:00pm 11.7 6.5 11.7 100 0.0 WNW 30 50 16 27 1015.6 - 2.4
29/07:34pm 11.6 6.4 11.6 100 0.0 WNW 30 54 16 29 1015.4 - 2.4
29/07:30pm 11.6 6.8 11.6 100 0.0 WNW 28 41 15 22 1015.4 1015.7 2.4
29/07:00pm 11.4 6.5 11.4 100 0.0 W 28 50 15 27 1015.5 - 2.4
29/06:30pm 11.7 5.6 11.7 100 0.0 WNW 35 61 19 33 1015.0 1015.3 2.2
29/06:08pm 11.9 6.8 11.9 100 0.0 WNW 30 48 16 26 1014.6 - 1.6
29/06:00pm 11.9 7.2 11.9 100 0.0 WNW 28 43 15 23 1014.6 1014.9 1.4
29/05:42pm 11.9 7.2 11.9 100 0.0 WNW 28 46 15 25 1014.5 - 1.4
29/05:30pm 11.9 7.6 11.9 100 0.0 WNW 26 43 14 23 1014.5 1014.8 1.4
29/05:02pm 11.9 7.2 11.9 100 0.0 WNW 28 48 15 26 1014.3 - 1.4
29/05:00pm 11.9 7.6 11.9 100 0.0 WNW 26 44 14 24 1014.3 - 1.4
29/04:31pm 11.8 7.0 11.8 100 0.0 WNW 28 48 15 26 1014.2 - 1.4
29/04:30pm 11.8 7.0 11.8 100 0.0 WNW 28 43 15 23 1014.3 1014.6 1.4
29/04:00pm 12.0 6.5 12.0 100 0.0 WNW 32 50 17 27 1014.0 - 1.2
29/03:30pm 12.1 6.5 12.1 100 0.0 WNW 33 61 18 33 1013.9 1014.2 0.6
29/03:02pm 12.2 7.6 12.2 100 0.0 WNW 28 46 15 25 1013.5 - 0.0
29/03:00pm 12.2 7.6 12.2 100 0.0 WNW 28 44 15 24 1013.5 1013.8 0.0
29/02:30pm 11.9 6.8 11.9 100 0.0 NW 30 54 16 29 1013.5 1013.8 0.0
29/02:00pm 12.5 7.1 12.3 99 0.1 WNW 32 54 17 29 1013.2 - 0.0
29/01:30pm 12.6 8.0 12.3 98 0.2 WNW 28 46 15 25 1013.2 1013.5 0.0
29/01:00pm 12.9 7.4 12.6 98 0.2 WNW 33 56 18 30 1013.1 - 0.0
29/12:30pm 12.0 5.6 12.0 100 0.0 WNW 37 63 20 34 1013.6 1013.9 0.0
29/12:00pm 11.9 5.8 11.9 100 0.0 WNW 35 59 19 32 1013.8 1014.1 0.0
29/11:30am 12.1 6.1 12.1 100 0.0 NW 35 63 19 34 1013.9 1014.2 0.0
29/11:00am 11.8 5.7 11.8 100 0.0 NW 35 54 19 29 1013.8 - 0.0
29/10:30am 12.1 5.5 11.5 96 0.3 NW 37 59 20 32 1013.7 1014.0 0.0
29/10:00am 11.8 5.3 11.8 100 0.0 NW 37 63 20 34 1013.4 - 0.0
29/09:30am 11.2 4.9 11.2 100 0.0 NW 35 57 19 31 1013.1 1013.4 0.0
29/09:00am 10.7 4.3 10.7 100 0.0 WNW 35 57 19 31 1013.0 1013.3 0.0
29/08:36am 10.5 4.6 10.5 100 0.0 NW 32 57 17 31 1013.0 - 0.0
29/08:30am 10.3 4.4 10.3 100 0.0 WNW 32 46 17 25 1013.0 1013.3 0.0
29/08:02am 10.2 4.2 10.2 100 0.0 NW 32 50 17 27 1012.8 - 0.0
29/08:00am 10.3 4.4 10.3 100 0.0 NW 32 46 17 25 1012.8 - 0.0
29/07:30am 10.0 3.4 10.0 100 0.0 NW 35 54 19 29 1012.7 1013.0 0.0
29/07:00am 9.8 4.5 9.8 100 0.0 NW 28 50 15 27 1012.4 - 0.0
29/06:30am 9.8 3.7 9.8 100 0.0 NW 32 50 17 27 1012.4 1012.7 0.0
29/06:00am 9.5 3.3 9.5 100 0.0 NW 32 54 17 29 1012.0 1012.3 0.0
29/05:34am 9.1 3.6 9.1 100 0.0 NW 28 46 15 25 1012.4 - 0.0
29/05:30am 9.0 3.1 9.0 100 0.0 NW 30 46 16 25 1012.4 1012.7 0.0
29/05:00am 9.5 3.7 9.5 100 0.0 NW 30 50 16 27 1012.3 - 0.0
29/04:30am 9.5 3.1 9.2 98 0.2 NW 33 56 18 30 1011.8 1012.1 0.0
29/04:02am 9.5 3.5 8.7 95 0.4 NW 30 52 16 28 1012.2 - 0.0
29/04:00am 9.5 3.5 8.7 95 0.4 NW 30 46 16 25 1012.3 - 0.0
29/03:30am 9.6 3.2 8.5 93 0.5 NW 32 52 17 28 1012.8 1013.1 0.0
29/03:00am 9.9 4.2 8.5 91 0.7 NW 28 46 15 25 1012.9 1013.2 0.0
29/02:30am 10.1 4.4 8.4 89 0.8 NW 28 46 15 25 1013.1 1013.4 0.0
29/02:17am 10.3 3.9 8.4 88 0.9 NW 32 50 17 27 1013.2 - 0.0
29/02:00am 10.4 4.7 8.2 86 1.1 NW 28 44 15 24 1013.4 - 0.0
29/01:35am 10.5 3.9 7.9 84 1.3 NW 32 50 17 27 1013.2 - 0.0
29/01:30am 10.5 3.7 7.9 84 1.3 NW 33 48 18 26 1013.2 1013.5 0.0
29/01:00am 10.6 3.8 7.7 82 1.4 WNW 33 52 18 28 1013.5 - 0.0
29/12:37am 10.7 3.5 7.8 82 1.4 WNW 35 59 19 32 1013.5 - 0.0
29/12:30am 10.8 3.7 7.9 82 1.4 WNW 35 52 19 28 1013.6 1013.9 0.0
29/12:00am 10.8 4.1 7.5 80 1.6 WNW 32 54 17 29 1013.8 1014.1 0.0
 
Date/Time
CST
Temp
°C
App
Temp
°C
Dew
Point
Rel
Hum
%
Delta-T
°C
Wind Press
QNH
hPa
Press
MSL
hPa
Rain
since 9 am
mm
Dir
 
Spd
km/h
Gust
km/h
Spd
kts
Gust
kts
28/11:30pm 11.0 4.4 7.7 80 1.6 WNW 32 50 17 27 1013.9 1014.2 0.0
28/11:11pm 11.2 4.1 7.9 80 1.6 WNW 35 54 19 29 1013.9 - 0.0
28/11:00pm 11.0 4.3 8.2 83 1.4 NW 33 50 18 27 1014.0 - 0.0
28/10:31pm 11.2 4.6 8.6 84 1.3 WNW 33 52 18 28 1014.1 - 0.0
28/10:30pm 11.2 4.2 8.4 83 1.4 WNW 35 52 19 28 1014.1 1014.4 0.0
28/10:02pm 11.7 4.7 8.4 80 1.7 WNW 35 61 19 33 1014.1 - 0.0
28/10:00pm 11.5 4.9 8.5 82 1.5 WNW 33 50 18 27 1014.1 - 0.0
28/09:30pm 11.5 5.0 8.2 80 1.7 NW 32 56 17 30 1014.2 1014.5 0.0
28/09:04pm 11.8 5.1 8.3 79 1.8 WNW 33 56 18 30 1014.2 - 0.0
28/09:00pm 11.7 5.3 8.4 80 1.7 WNW 32 48 17 26 1014.2 1014.5 0.0
28/08:30pm 11.5 5.5 8.5 82 1.5 NW 30 48 16 26 1014.1 1014.4 0.0
28/08:22pm 11.3 5.4 8.9 85 1.2 NW 30 48 16 26 1014.1 - 0.0
28/08:00pm 11.1 5.7 9.5 90 0.8 NW 28 43 15 23 1014.1 - 0.0
28/07:36pm 11.1 5.8 10.0 93 0.6 NW 28 46 15 25 1014.1 - 0.0
28/07:30pm 11.1 5.8 9.9 92 0.6 NW 28 44 15 24 1014.0 1014.3 0.0
28/07:00pm 11.0 6.2 10.2 95 0.4 NW 26 39 14 21 1013.9 - 0.0
28/06:30pm 11.0 6.2 10.4 96 0.3 NW 26 43 14 23 1013.8 1014.1 0.0
28/06:00pm 11.0 6.7 10.8 99 0.1 NW 24 37 13 20 1013.6 1013.9 0.0
28/05:30pm 11.2 6.3 11.2 100 0.0 NW 28 44 15 24 1013.7 1014.0 0.0
28/05:09pm 11.4 6.5 11.4 100 0.0 NW 28 46 15 25 1013.8 - 0.0
28/05:00pm 11.7 6.9 11.7 100 0.0 NW 28 44 15 24 1013.6 - 0.0

Other Formats:

Comma delimited format used in spreadsheet applications
http://www.bom.gov.au/fwo/IDS60801/IDS60801.94683.axf

JavaScript Object Notation format (JSON) in row-major order
http://www.bom.gov.au/fwo/IDS60801/IDS60801.94683.json